sensor_id;sensor_type;location;lat;lon;timestamp;temperature;humidity
36244;DHT22;22284;49.956;19.816;2022-09-09T00:00:17;18.02;90.41
36244;DHT22;22284;49.956;19.816;2022-09-09T00:03:27;18.02;90.36
36244;DHT22;22284;49.956;19.816;2022-09-09T00:13:48;18.02;90.41
36244;DHT22;22284;49.956;19.816;2022-09-09T00:16:55;18.03;90.22
36244;DHT22;22284;49.956;19.816;2022-09-09T00:20:35;17.99;90.45
36244;DHT22;22284;49.956;19.816;2022-09-09T00:23:42;17.99;90.24
36244;DHT22;22284;49.956;19.816;2022-09-09T00:26:49;17.99;90.08
36244;DHT22;22284;49.956;19.816;2022-09-09T00:33:19;17.99;89.99
36244;DHT22;22284;49.956;19.816;2022-09-09T00:36:25;17.99;89.92
36244;DHT22;22284;49.956;19.816;2022-09-09T00:39:46;17.99;89.91
36244;DHT22;22284;49.956;19.816;2022-09-09T00:42:58;17.98;89.97
36244;DHT22;22284;49.956;19.816;2022-09-09T00:49:47;17.95;89.96
36244;DHT22;22284;49.956;19.816;2022-09-09T00:56:14;17.93;89.91
36244;DHT22;22284;49.956;19.816;2022-09-09T00:59:46;17.93;89.86
36244;DHT22;22284;49.956;19.816;2022-09-09T01:03:32;17.92;89.91
36244;DHT22;22284;49.956;19.816;2022-09-09T01:06:37;17.90;89.68
36244;DHT22;22284;49.956;19.816;2022-09-09T01:09:55;17.90;89.74
36244;DHT22;22284;49.956;19.816;2022-09-09T01:12:59;17.86;89.83
36244;DHT22;22284;49.956;19.816;2022-09-09T01:16:04;17.85;89.75
36244;DHT22;22284;49.956;19.816;2022-09-09T01:19:10;17.86;89.63
36244;DHT22;22284;49.956;19.816;2022-09-09T01:29:15;17.82;89.56
36244;DHT22;22284;49.956;19.816;2022-09-09T01:32:44;17.79;89.51
36244;DHT22;22284;49.956;19.816;2022-09-09T01:39:02;17.77;89.52
36244;DHT22;22284;49.956;19.816;2022-09-09T01:42:06;17.70;89.57
36244;DHT22;22284;49.956;19.816;2022-09-09T01:45:09;17.67;89.52
36244;DHT22;22284;49.956;19.816;2022-09-09T01:48:10;17.64;89.50
36244;DHT22;22284;49.956;19.816;2022-09-09T01:51:11;17.64;89.33
36244;DHT22;22284;49.956;19.816;2022-09-09T01:54:12;17.61;89.29
36244;DHT22;22284;49.956;19.816;2022-09-09T02:00:45;17.54;89.20
36244;DHT22;22284;49.956;19.816;2022-09-09T02:03:52;17.51;89.07
36244;DHT22;22284;49.956;19.816;2022-09-09T02:06:56;17.50;89.06
36244;DHT22;22284;49.956;19.816;2022-09-09T02:10:22;17.44;88.96
36244;DHT22;22284;49.956;19.816;2022-09-09T02:13:25;17.44;88.81
36244;DHT22;22284;49.956;19.816;2022-09-09T02:19:49;17.40;88.78
36244;DHT22;22284;49.956;19.816;2022-09-09T02:22:53;17.38;88.82
36244;DHT22;22284;49.956;19.816;2022-09-09T02:25:55;17.34;88.89
36244;DHT22;22284;49.956;19.816;2022-09-09T02:29:01;17.33;88.76
36244;DHT22;22284;49.956;19.816;2022-09-09T02:32:06;17.33;88.65
36244;DHT22;22284;49.956;19.816;2022-09-09T02:35:12;17.33;88.65
36244;DHT22;22284;49.956;19.816;2022-09-09T02:38:16;17.31;88.71
36244;DHT22;22284;49.956;19.816;2022-09-09T02:41:26;17.29;88.87
36244;DHT22;22284;49.956;19.816;2022-09-09T02:44:27;17.30;88.70
36244;DHT22;22284;49.956;19.816;2022-09-09T02:47:50;17.31;88.74
36244;DHT22;22284;49.956;19.816;2022-09-09T02:51:02;17.33;88.71
36244;DHT22;22284;49.956;19.816;2022-09-09T02:54:40;17.34;88.83
36244;DHT22;22284;49.956;19.816;2022-09-09T02:57:43;17.36;88.81
36244;DHT22;22284;49.956;19.816;2022-09-09T03:00:50;17.37;88.90
36244;DHT22;22284;49.956;19.816;2022-09-09T03:03:51;17.37;88.94
36244;DHT22;22284;49.956;19.816;2022-09-09T03:06:52;17.38;89.03
36244;DHT22;22284;49.956;19.816;2022-09-09T03:09:53;17.37;89.09
36244;DHT22;22284;49.956;19.816;2022-09-09T03:12:55;17.36;89.05
36244;DHT22;22284;49.956;19.816;2022-09-09T03:15:57;17.34;89.06
36244;DHT22;22284;49.956;19.816;2022-09-09T03:19:00;17.30;89.00
36244;DHT22;22284;49.956;19.816;2022-09-09T03:22:02;17.26;88.98
36244;DHT22;22284;49.956;19.816;2022-09-09T03:25:05;17.23;88.94
36244;DHT22;22284;49.956;19.816;2022-09-09T03:28:07;17.22;88.95
36244;DHT22;22284;49.956;19.816;2022-09-09T03:31:08;17.19;89.14
36244;DHT22;22284;49.956;19.816;2022-09-09T03:34:13;17.12;89.10
36244;DHT22;22284;49.956;19.816;2022-09-09T03:37:14;17.10;88.99
36244;DHT22;22284;49.956;19.816;2022-09-09T03:40:15;17.09;89.16
36244;DHT22;22284;49.956;19.816;2022-09-09T03:43:16;17.08;89.09
36244;DHT22;22284;49.956;19.816;2022-09-09T03:46:20;17.05;89.19
36244;DHT22;22284;49.956;19.816;2022-09-09T03:49:21;17.03;89.29
36244;DHT22;22284;49.956;19.816;2022-09-09T03:52:23;17.02;89.25
36244;DHT22;22284;49.956;19.816;2022-09-09T03:55:26;17.01;89.30
36244;DHT22;22284;49.956;19.816;2022-09-09T03:58:27;16.99;89.33
36244;DHT22;22284;49.956;19.816;2022-09-09T04:01:29;17.01;89.39
36244;DHT22;22284;49.956;19.816;2022-09-09T04:04:30;16.96;89.54
36244;DHT22;22284;49.956;19.816;2022-09-09T04:07:31;16.99;89.57
36244;DHT22;22284;49.956;19.816;2022-09-09T04:10:33;16.98;89.60
36244;DHT22;22284;49.956;19.816;2022-09-09T04:13:36;16.98;89.56
36244;DHT22;22284;49.956;19.816;2022-09-09T04:16:39;16.95;89.53
36244;DHT22;22284;49.956;19.816;2022-09-09T04:19:42;16.98;89.46
36244;DHT22;22284;49.956;19.816;2022-09-09T04:22:43;16.99;89.42
36244;DHT22;22284;49.956;19.816;2022-09-09T04:25:48;16.98;89.42
36244;DHT22;22284;49.956;19.816;2022-09-09T04:28:50;17.01;89.41
36244;DHT22;22284;49.956;19.816;2022-09-09T04:31:51;16.99;89.33
36244;DHT22;22284;49.956;19.816;2022-09-09T04:34:52;17.02;89.40
36244;DHT22;22284;49.956;19.816;2022-09-09T04:37:53;17.03;89.39
36244;DHT22;22284;49.956;19.816;2022-09-09T04:40:54;17.06;89.36
36244;DHT22;22284;49.956;19.816;2022-09-09T04:43:55;17.09;89.39
36244;DHT22;22284;49.956;19.816;2022-09-09T04:46:56;17.08;89.28
36244;DHT22;22284;49.956;19.816;2022-09-09T04:49:57;17.09;89.22
36244;DHT22;22284;49.956;19.816;2022-09-09T04:53:03;17.09;89.16
36244;DHT22;22284;49.956;19.816;2022-09-09T04:56:12;17.09;89.09
36244;DHT22;22284;49.956;19.816;2022-09-09T04:59:13;17.10;89.03
36244;DHT22;22284;49.956;19.816;2022-09-09T05:02:15;17.10;88.97
36244;DHT22;22284;49.956;19.816;2022-09-09T05:05:17;17.12;89.11
36244;DHT22;22284;49.956;19.816;2022-09-09T05:08:19;17.16;88.91
36244;DHT22;22284;49.956;19.816;2022-09-09T05:11:25;17.22;88.84
36244;DHT22;22284;49.956;19.816;2022-09-09T05:14:27;17.25;88.87
36244;DHT22;22284;49.956;19.816;2022-09-09T05:17:28;17.30;88.83
36244;DHT22;22284;49.956;19.816;2022-09-09T05:20:29;17.31;88.81
36244;DHT22;22284;49.956;19.816;2022-09-09T05:23:31;17.31;88.77
36244;DHT22;22284;49.956;19.816;2022-09-09T05:26:32;17.36;88.78
36244;DHT22;22284;49.956;19.816;2022-09-09T05:29:33;17.37;88.73
36244;DHT22;22284;49.956;19.816;2022-09-09T05:32:34;17.38;88.67
36244;DHT22;22284;49.956;19.816;2022-09-09T05:35:35;17.38;88.64
36244;DHT22;22284;49.956;19.816;2022-09-09T05:38:36;17.37;88.59
36244;DHT22;22284;49.956;19.816;2022-09-09T05:41:38;17.38;88.54
36244;DHT22;22284;49.956;19.816;2022-09-09T05:44:39;17.41;88.54
36244;DHT22;22284;49.956;19.816;2022-09-09T05:47:42;17.44;88.61
36244;DHT22;22284;49.956;19.816;2022-09-09T05:50:43;17.40;88.45
36244;DHT22;22284;49.956;19.816;2022-09-09T05:53:46;17.40;88.39
36244;DHT22;22284;49.956;19.816;2022-09-09T05:56:47;17.41;88.40
36244;DHT22;22284;49.956;19.816;2022-09-09T05:59:50;17.38;88.61
36244;DHT22;22284;49.956;19.816;2022-09-09T06:02:52;17.41;88.41
36244;DHT22;22284;49.956;19.816;2022-09-09T06:06:01;17.44;88.41
36244;DHT22;22284;49.956;19.816;2022-09-09T06:09:04;17.51;88.45
36244;DHT22;22284;49.956;19.816;2022-09-09T06:12:10;17.55;88.48
36244;DHT22;22284;49.956;19.816;2022-09-09T06:15:11;17.64;88.51
36244;DHT22;22284;49.956;19.816;2022-09-09T06:18:12;17.67;88.49
36244;DHT22;22284;49.956;19.816;2022-09-09T06:21:24;17.72;88.59
36244;DHT22;22284;49.956;19.816;2022-09-09T06:24:21;17.75;88.75
36244;DHT22;22284;49.956;19.816;2022-09-09T06:27:23;17.77;88.52
36244;DHT22;22284;49.956;19.816;2022-09-09T06:30:24;17.79;88.45
36244;DHT22;22284;49.956;19.816;2022-09-09T06:33:25;17.85;88.59
36244;DHT22;22284;49.956;19.816;2022-09-09T06:36:29;17.96;88.61
36244;DHT22;22284;49.956;19.816;2022-09-09T06:39:32;18.05;88.66
36244;DHT22;22284;49.956;19.816;2022-09-09T06:42:33;18.07;88.57
36244;DHT22;22284;49.956;19.816;2022-09-09T06:45:34;18.10;88.42
36244;DHT22;22284;49.956;19.816;2022-09-09T06:48:39;18.10;88.23
36244;DHT22;22284;49.956;19.816;2022-09-09T06:51:43;18.12;87.96
36244;DHT22;22284;49.956;19.816;2022-09-09T06:54:45;18.10;87.67
36244;DHT22;22284;49.956;19.816;2022-09-09T06:57:46;18.14;87.59
36244;DHT22;22284;49.956;19.816;2022-09-09T07:00:47;18.17;87.50
36244;DHT22;22284;49.956;19.816;2022-09-09T07:03:52;18.19;87.26
36244;DHT22;22284;49.956;19.816;2022-09-09T07:06:55;18.20;87.10
36244;DHT22;22284;49.956;19.816;2022-09-09T07:09:56;18.25;86.86
36244;DHT22;22284;49.956;19.816;2022-09-09T07:12:57;18.30;86.49
36244;DHT22;22284;49.956;19.816;2022-09-09T07:16:08;18.33;86.29
36244;DHT22;22284;49.956;19.816;2022-09-09T07:19:11;18.40;86.21
36244;DHT22;22284;49.956;19.816;2022-09-09T07:22:13;18.43;86.21
36244;DHT22;22284;49.956;19.816;2022-09-09T07:25:15;18.51;86.43
36244;DHT22;22284;49.956;19.816;2022-09-09T07:28:20;18.55;86.33
36244;DHT22;22284;49.956;19.816;2022-09-09T07:31:27;18.59;85.87
36244;DHT22;22284;49.956;19.816;2022-09-09T07:34:31;18.61;85.21
36244;DHT22;22284;49.956;19.816;2022-09-09T07:37:31;18.65;84.95
36244;DHT22;22284;49.956;19.816;2022-09-09T07:40:33;18.68;84.70
36244;DHT22;22284;49.956;19.816;2022-09-09T07:43:39;18.74;84.03
36244;DHT22;22284;49.956;19.816;2022-09-09T07:46:41;18.80;83.14
36244;DHT22;22284;49.956;19.816;2022-09-09T07:49:42;18.83;82.85
36244;DHT22;22284;49.956;19.816;2022-09-09T07:52:43;18.87;82.57
36244;DHT22;22284;49.956;19.816;2022-09-09T07:55:44;18.90;82.34
36244;DHT22;22284;49.956;19.816;2022-09-09T07:58:46;18.99;81.80
36244;DHT22;22284;49.956;19.816;2022-09-09T08:01:51;19.06;81.13
36244;DHT22;22284;49.956;19.816;2022-09-09T08:04:54;19.10;81.16
36244;DHT22;22284;49.956;19.816;2022-09-09T08:07:55;19.15;81.32
36244;DHT22;22284;49.956;19.816;2022-09-09T08:11:14;19.21;80.93
36244;DHT22;22284;49.956;19.816;2022-09-09T08:14:16;19.30;80.27
36244;DHT22;22284;49.956;19.816;2022-09-09T08:17:17;19.40;79.58
36244;DHT22;22284;49.956;19.816;2022-09-09T08:20:18;19.49;79.60
36244;DHT22;22284;49.956;19.816;2022-09-09T08:23:20;19.57;79.30
36244;DHT22;22284;49.956;19.816;2022-09-09T08:26:28;19.62;78.97
36244;DHT22;22284;49.956;19.816;2022-09-09T08:29:29;19.68;78.67
36244;DHT22;22284;49.956;19.816;2022-09-09T08:32:30;19.76;78.42
36244;DHT22;22284;49.956;19.816;2022-09-09T08:35:31;19.85;78.05
36244;DHT22;22284;49.956;19.816;2022-09-09T08:38:33;19.90;77.69
36244;DHT22;22284;49.956;19.816;2022-09-09T08:42:12;19.96;77.24
36244;DHT22;22284;49.956;19.816;2022-09-09T08:45:44;20.00;76.85
36244;DHT22;22284;49.956;19.816;2022-09-09T08:48:57;20.04;76.44
36244;DHT22;22284;49.956;19.816;2022-09-09T08:51:59;20.09;76.03
36244;DHT22;22284;49.956;19.816;2022-09-09T08:58:33;20.23;75.73
36244;DHT22;22284;49.956;19.816;2022-09-09T09:05:28;20.35;73.86
36244;DHT22;22284;49.956;19.816;2022-09-09T09:11:57;20.65;74.26
36244;DHT22;22284;49.956;19.816;2022-09-09T09:15:01;20.75;73.24
36244;DHT22;22284;49.956;19.816;2022-09-09T09:18:04;20.79;73.11
36244;DHT22;22284;49.956;19.816;2022-09-09T09:21:15;20.84;72.39
36244;DHT22;22284;49.956;19.816;2022-09-09T09:24:23;20.86;72.28
36244;DHT22;22284;49.956;19.816;2022-09-09T09:27:57;20.80;71.89
36244;DHT22;22284;49.956;19.816;2022-09-09T09:31:09;20.82;71.40
36244;DHT22;22284;49.956;19.816;2022-09-09T09:34:10;20.89;70.97
36244;DHT22;22284;49.956;19.816;2022-09-09T09:37:17;20.97;70.91
36244;DHT22;22284;49.956;19.816;2022-09-09T09:40:22;21.04;70.33
36244;DHT22;22284;49.956;19.816;2022-09-09T09:43:34;21.11;70.12
36244;DHT22;22284;49.956;19.816;2022-09-09T09:46:35;21.15;70.47
36244;DHT22;22284;49.956;19.816;2022-09-09T09:49:37;21.21;70.20
36244;DHT22;22284;49.956;19.816;2022-09-09T09:52:40;21.24;69.61
36244;DHT22;22284;49.956;19.816;2022-09-09T09:55:50;21.25;69.54
36244;DHT22;22284;49.956;19.816;2022-09-09T09:58:51;21.31;69.19
36244;DHT22;22284;49.956;19.816;2022-09-09T10:01:54;21.30;68.01
36244;DHT22;22284;49.956;19.816;2022-09-09T10:05:17;21.27;67.94
36244;DHT22;22284;49.956;19.816;2022-09-09T10:08:20;21.25;67.86
36244;DHT22;22284;49.956;19.816;2022-09-09T10:11:35;21.28;67.51
36244;DHT22;22284;49.956;19.816;2022-09-09T10:22:02;21.48;65.92
36244;DHT22;22284;49.956;19.816;2022-09-09T10:25:29;21.62;65.41
36244;DHT22;22284;49.956;19.816;2022-09-09T10:32:33;21.84;64.52
36244;DHT22;22284;49.956;19.816;2022-09-09T10:35:59;21.90;64.08
36244;DHT22;22284;49.956;19.816;2022-09-09T10:42:18;22.07;64.77
36244;DHT22;22284;49.956;19.816;2022-09-09T10:45:30;22.17;64.35
36244;DHT22;22284;49.956;19.816;2022-09-09T10:55:56;22.32;62.98
36244;DHT22;22284;49.956;19.816;2022-09-09T10:59:16;22.29;61.46
36244;DHT22;22284;49.956;19.816;2022-09-09T11:02:29;22.32;62.70
36244;DHT22;22284;49.956;19.816;2022-09-09T11:05:44;22.31;62.93
36244;DHT22;22284;49.956;19.816;2022-09-09T11:08:48;22.31;61.75
36244;DHT22;22284;49.956;19.816;2022-09-09T11:11:56;22.36;61.43
36244;DHT22;22284;49.956;19.816;2022-09-09T11:15:12;22.45;61.09
36244;DHT22;22284;49.956;19.816;2022-09-09T11:18:15;22.54;58.87
36244;DHT22;22284;49.956;19.816;2022-09-09T11:21:37;22.61;59.98
36244;DHT22;22284;49.956;19.816;2022-09-09T11:24:47;22.65;60.26
36244;DHT22;22284;49.956;19.816;2022-09-09T11:31:57;22.78;60.04
36244;DHT22;22284;49.956;19.816;2022-09-09T11:38:50;22.93;58.26
36244;DHT22;22284;49.956;19.816;2022-09-09T11:41:51;22.98;57.04
36244;DHT22;22284;49.956;19.816;2022-09-09T11:44:53;22.96;57.97
36244;DHT22;22284;49.956;19.816;2022-09-09T11:48:00;22.94;58.10
36244;DHT22;22284;49.956;19.816;2022-09-09T11:51:08;23.01;58.24
36244;DHT22;22284;49.956;19.816;2022-09-09T11:54:29;23.03;58.15
36244;DHT22;22284;49.956;19.816;2022-09-09T11:57:35;23.06;58.01
36244;DHT22;22284;49.956;19.816;2022-09-09T12:00:43;23.09;57.58
36244;DHT22;22284;49.956;19.816;2022-09-09T12:03:48;23.09;57.50
36244;DHT22;22284;49.956;19.816;2022-09-09T12:07:23;23.10;57.11
36244;DHT22;22284;49.956;19.816;2022-09-09T12:10:33;23.10;57.21
36244;DHT22;22284;49.956;19.816;2022-09-09T12:13:36;23.06;57.06
36244;DHT22;22284;49.956;19.816;2022-09-09T12:16:38;23.10;57.31
36244;DHT22;22284;49.956;19.816;2022-09-09T12:19:40;23.07;56.73
36244;DHT22;22284;49.956;19.816;2022-09-09T12:23:18;23.11;56.76
36244;DHT22;22284;49.956;19.816;2022-09-09T12:26:33;23.13;56.59
36244;DHT22;22284;49.956;19.816;2022-09-09T12:29:55;23.20;56.18
36244;DHT22;22284;49.956;19.816;2022-09-09T12:33:11;23.20;55.34
36244;DHT22;22284;49.956;19.816;2022-09-09T12:36:06;23.20;55.32
36244;DHT22;22284;49.956;19.816;2022-09-09T12:39:22;23.20;54.54
36244;DHT22;22284;49.956;19.816;2022-09-09T12:42:23;23.15;54.56
36244;DHT22;22284;49.956;19.816;2022-09-09T12:45:26;23.13;54.18
36244;DHT22;22284;49.956;19.816;2022-09-09T12:48:35;23.11;55.01
36244;DHT22;22284;49.956;19.816;2022-09-09T12:51:37;23.10;54.65
36244;DHT22;22284;49.956;19.816;2022-09-09T12:54:44;23.14;54.48
36244;DHT22;22284;49.956;19.816;2022-09-09T12:57:45;23.15;54.89
36244;DHT22;22284;49.956;19.816;2022-09-09T13:00:52;23.18;55.10
36244;DHT22;22284;49.956;19.816;2022-09-09T13:03:54;23.25;54.90
36244;DHT22;22284;49.956;19.816;2022-09-09T13:07:07;23.28;53.91
36244;DHT22;22284;49.956;19.816;2022-09-09T13:10:13;23.31;53.64
36244;DHT22;22284;49.956;19.816;2022-09-09T13:13:22;23.31;53.55
36244;DHT22;22284;49.956;19.816;2022-09-09T13:16:30;23.30;53.16
36244;DHT22;22284;49.956;19.816;2022-09-09T13:19:36;23.30;53.41
36244;DHT22;22284;49.956;19.816;2022-09-09T13:22:38;23.35;53.68
36244;DHT22;22284;49.956;19.816;2022-09-09T13:25:41;23.38;53.60
36244;DHT22;22284;49.956;19.816;2022-09-09T13:28:44;23.44;53.52
36244;DHT22;22284;49.956;19.816;2022-09-09T13:31:48;23.48;53.97
36244;DHT22;22284;49.956;19.816;2022-09-09T13:35:00;23.55;53.56
36244;DHT22;22284;49.956;19.816;2022-09-09T13:38:08;23.58;53.27
36244;DHT22;22284;49.956;19.816;2022-09-09T13:41:10;23.58;52.16
36244;DHT22;22284;49.956;19.816;2022-09-09T13:44:26;23.53;52.17
36244;DHT22;22284;49.956;19.816;2022-09-09T13:47:36;23.53;52.99
36244;DHT22;22284;49.956;19.816;2022-09-09T13:50:37;23.52;53.34
36244;DHT22;22284;49.956;19.816;2022-09-09T13:53:38;23.55;53.38
36244;DHT22;22284;49.956;19.816;2022-09-09T13:56:41;23.59;52.98
36244;DHT22;22284;49.956;19.816;2022-09-09T13:59:42;23.58;52.56
36244;DHT22;22284;49.956;19.816;2022-09-09T14:02:43;23.56;52.43
36244;DHT22;22284;49.956;19.816;2022-09-09T14:05:45;23.55;52.97
36244;DHT22;22284;49.956;19.816;2022-09-09T14:08:46;23.53;53.15
36244;DHT22;22284;49.956;19.816;2022-09-09T14:11:47;23.49;53.49
36244;DHT22;22284;49.956;19.816;2022-09-09T14:14:48;23.44;52.91
36244;DHT22;22284;49.956;19.816;2022-09-09T14:17:50;23.42;52.89
36244;DHT22;22284;49.956;19.816;2022-09-09T14:20:52;23.40;52.72
36244;DHT22;22284;49.956;19.816;2022-09-09T14:23:55;23.41;52.77
36244;DHT22;22284;49.956;19.816;2022-09-09T14:26:58;23.41;52.92
36244;DHT22;22284;49.956;19.816;2022-09-09T14:29:59;23.45;53.01
36244;DHT22;22284;49.956;19.816;2022-09-09T14:33:01;23.45;52.76
36244;DHT22;22284;49.956;19.816;2022-09-09T14:36:04;23.44;52.81
36244;DHT22;22284;49.956;19.816;2022-09-09T14:39:05;23.44;52.68
36244;DHT22;22284;49.956;19.816;2022-09-09T14:42:06;23.46;52.95
36244;DHT22;22284;49.956;19.816;2022-09-09T14:45:09;23.48;52.83
36244;DHT22;22284;49.956;19.816;2022-09-09T14:48:10;23.45;52.55
36244;DHT22;22284;49.956;19.816;2022-09-09T14:51:22;23.42;52.17
36244;DHT22;22284;49.956;19.816;2022-09-09T14:54:23;23.37;52.82
36244;DHT22;22284;49.956;19.816;2022-09-09T14:57:24;23.35;52.58
36244;DHT22;22284;49.956;19.816;2022-09-09T15:00:25;23.32;52.60
36244;DHT22;22284;49.956;19.816;2022-09-09T15:03:25;23.31;52.61
36244;DHT22;22284;49.956;19.816;2022-09-09T15:06:30;23.25;52.65
36244;DHT22;22284;49.956;19.816;2022-09-09T15:09:33;23.20;52.76
36244;DHT22;22284;49.956;19.816;2022-09-09T15:12:34;23.21;52.89
36244;DHT22;22284;49.956;19.816;2022-09-09T15:15:35;23.25;52.89
36244;DHT22;22284;49.956;19.816;2022-09-09T15:18:37;23.25;52.93
36244;DHT22;22284;49.956;19.816;2022-09-09T15:21:40;23.28;52.68
36244;DHT22;22284;49.956;19.816;2022-09-09T15:24:41;23.31;52.53
36244;DHT22;22284;49.956;19.816;2022-09-09T15:27:42;23.32;52.49
36244;DHT22;22284;49.956;19.816;2022-09-09T15:30:43;23.35;52.40
36244;DHT22;22284;49.956;19.816;2022-09-09T15:33:50;23.30;51.20
36244;DHT22;22284;49.956;19.816;2022-09-09T15:36:51;23.27;52.84
36244;DHT22;22284;49.956;19.816;2022-09-09T15:39:52;23.23;53.62
36244;DHT22;22284;49.956;19.816;2022-09-09T15:42:53;23.21;53.70
36244;DHT22;22284;49.956;19.816;2022-09-09T15:45:59;23.17;53.30
36244;DHT22;22284;49.956;19.816;2022-09-09T15:49:19;23.14;53.68
36244;DHT22;22284;49.956;19.816;2022-09-09T15:52:20;23.10;53.81
36244;DHT22;22284;49.956;19.816;2022-09-09T15:55:21;23.13;53.81
36244;DHT22;22284;49.956;19.816;2022-09-09T15:58:24;23.11;53.87
36244;DHT22;22284;49.956;19.816;2022-09-09T16:01:26;23.09;54.14
36244;DHT22;22284;49.956;19.816;2022-09-09T16:04:28;23.06;54.42
36244;DHT22;22284;49.956;19.816;2022-09-09T16:07:30;23.01;54.25
36244;DHT22;22284;49.956;19.816;2022-09-09T16:10:31;22.93;55.32
36244;DHT22;22284;49.956;19.816;2022-09-09T16:13:36;22.86;55.95
36244;DHT22;22284;49.956;19.816;2022-09-09T16:16:37;22.78;56.17
36244;DHT22;22284;49.956;19.816;2022-09-09T16:19:39;22.66;56.51
36244;DHT22;22284;49.956;19.816;2022-09-09T16:22:40;22.54;57.32
36244;DHT22;22284;49.956;19.816;2022-09-09T16:25:42;22.44;58.14
36244;DHT22;22284;49.956;19.816;2022-09-09T16:28:44;22.28;58.56
36244;DHT22;22284;49.956;19.816;2022-09-09T16:31:48;22.14;59.14
36244;DHT22;22284;49.956;19.816;2022-09-09T16:34:49;22.03;59.86
36244;DHT22;22284;49.956;19.816;2022-09-09T16:37:50;21.92;60.55
36244;DHT22;22284;49.956;19.816;2022-09-09T16:40:51;21.74;61.07
36244;DHT22;22284;49.956;19.816;2022-09-09T16:43:56;21.58;61.99
36244;DHT22;22284;49.956;19.816;2022-09-09T16:46:57;21.44;62.52
36244;DHT22;22284;49.956;19.816;2022-09-09T16:49:58;21.30;63.04
36244;DHT22;22284;49.956;19.816;2022-09-09T16:52:59;21.13;63.36
36244;DHT22;22284;49.956;19.816;2022-09-09T16:56:08;20.99;63.81
36244;DHT22;22284;49.956;19.816;2022-09-09T16:59:13;20.82;64.31
36244;DHT22;22284;49.956;19.816;2022-09-09T17:02:14;20.72;64.82
36244;DHT22;22284;49.956;19.816;2022-09-09T17:05:15;20.56;64.90
36244;DHT22;22284;49.956;19.816;2022-09-09T17:08:16;20.51;64.96
36244;DHT22;22284;49.956;19.816;2022-09-09T17:11:18;20.38;65.19
36244;DHT22;22284;49.956;19.816;2022-09-09T17:14:20;20.32;65.69
36244;DHT22;22284;49.956;19.816;2022-09-09T17:17:22;20.25;65.88
36244;DHT22;22284;49.956;19.816;2022-09-09T17:20:23;20.16;66.23
36244;DHT22;22284;49.956;19.816;2022-09-09T17:23:24;20.07;66.80
36244;DHT22;22284;49.956;19.816;2022-09-09T17:26:28;20.02;67.56
36244;DHT22;22284;49.956;19.816;2022-09-09T17:29:30;19.94;68.26
36244;DHT22;22284;49.956;19.816;2022-09-09T17:32:31;19.93;68.61
36244;DHT22;22284;49.956;19.816;2022-09-09T17:35:32;19.86;69.43
36244;DHT22;22284;49.956;19.816;2022-09-09T17:38:34;19.80;69.42
36244;DHT22;22284;49.956;19.816;2022-09-09T17:41:38;19.75;69.65
36244;DHT22;22284;49.956;19.816;2022-09-09T17:44:39;19.68;69.92
36244;DHT22;22284;49.956;19.816;2022-09-09T17:47:42;19.66;70.25
36244;DHT22;22284;49.956;19.816;2022-09-09T17:50:43;19.62;70.53
36244;DHT22;22284;49.956;19.816;2022-09-09T17:53:48;19.58;70.73
36244;DHT22;22284;49.956;19.816;2022-09-09T17:56:50;19.52;70.88
36244;DHT22;22284;49.956;19.816;2022-09-09T17:59:52;19.47;71.01
36244;DHT22;22284;49.956;19.816;2022-09-09T18:02:53;19.41;71.29
36244;DHT22;22284;49.956;19.816;2022-09-09T18:06:05;19.33;71.89
36244;DHT22;22284;49.956;19.816;2022-09-09T18:09:20;19.29;72.29
36244;DHT22;22284;49.956;19.816;2022-09-09T18:12:22;19.26;72.33
36244;DHT22;22284;49.956;19.816;2022-09-09T18:15:23;19.19;72.38
36244;DHT22;22284;49.956;19.816;2022-09-09T18:18:26;19.13;72.31
36244;DHT22;22284;49.956;19.816;2022-09-09T18:21:30;19.13;72.37
36244;DHT22;22284;49.956;19.816;2022-09-09T18:24:34;19.11;72.41
36244;DHT22;22284;49.956;19.816;2022-09-09T18:27:36;19.09;72.57
36244;DHT22;22284;49.956;19.816;2022-09-09T18:30:40;19.03;72.69
36244;DHT22;22284;49.956;19.816;2022-09-09T18:33:44;19.02;72.74
36244;DHT22;22284;49.956;19.816;2022-09-09T18:36:49;18.99;72.77
36244;DHT22;22284;49.956;19.816;2022-09-09T18:39:52;18.93;72.99
36244;DHT22;22284;49.956;19.816;2022-09-09T18:42:53;18.92;73.20
36244;DHT22;22284;49.956;19.816;2022-09-09T18:45:54;18.90;73.47
36244;DHT22;22284;49.956;19.816;2022-09-09T18:48:56;18.85;73.69
36244;DHT22;22284;49.956;19.816;2022-09-09T18:51:57;18.80;73.93
36244;DHT22;22284;49.956;19.816;2022-09-09T18:54:59;18.78;74.16
36244;DHT22;22284;49.956;19.816;2022-09-09T18:58:00;18.69;74.57
36244;DHT22;22284;49.956;19.816;2022-09-09T19:01:04;18.67;74.72
36244;DHT22;22284;49.956;19.816;2022-09-09T19:04:08;18.61;74.78
36244;DHT22;22284;49.956;19.816;2022-09-09T19:07:09;18.55;74.84
36244;DHT22;22284;49.956;19.816;2022-09-09T19:10:11;18.52;75.17
36244;DHT22;22284;49.956;19.816;2022-09-09T19:13:13;18.48;75.31
36244;DHT22;22284;49.956;19.816;2022-09-09T19:16:14;18.43;75.38
36244;DHT22;22284;49.956;19.816;2022-09-09T19:19:23;18.37;75.63
36244;DHT22;22284;49.956;19.816;2022-09-09T19:22:24;18.31;75.70
36244;DHT22;22284;49.956;19.816;2022-09-09T19:25:26;18.27;75.65
36244;DHT22;22284;49.956;19.816;2022-09-09T19:28:27;18.25;75.77
36244;DHT22;22284;49.956;19.816;2022-09-09T19:31:28;18.21;75.86
36244;DHT22;22284;49.956;19.816;2022-09-09T19:34:30;18.20;76.04
36244;DHT22;22284;49.956;19.816;2022-09-09T19:37:32;18.16;76.13
36244;DHT22;22284;49.956;19.816;2022-09-09T19:40:34;18.13;76.33
36244;DHT22;22284;49.956;19.816;2022-09-09T19:43:35;18.12;77.24
36244;DHT22;22284;49.956;19.816;2022-09-09T19:46:38;18.09;76.25
36244;DHT22;22284;49.956;19.816;2022-09-09T19:49:40;18.03;76.39
36244;DHT22;22284;49.956;19.816;2022-09-09T19:52:41;18.02;76.64
36244;DHT22;22284;49.956;19.816;2022-09-09T19:55:43;17.99;77.23
36244;DHT22;22284;49.956;19.816;2022-09-09T19:58:46;17.92;77.69
36244;DHT22;22284;49.956;19.816;2022-09-09T20:01:47;17.85;78.02
36244;DHT22;22284;49.956;19.816;2022-09-09T20:04:49;17.81;78.36
36244;DHT22;22284;49.956;19.816;2022-09-09T20:07:50;17.81;77.97
36244;DHT22;22284;49.956;19.816;2022-09-09T20:10:54;17.74;77.96
36244;DHT22;22284;49.956;19.816;2022-09-09T20:13:56;17.72;78.70
36244;DHT22;22284;49.956;19.816;2022-09-09T20:16:57;17.70;79.19
36244;DHT22;22284;49.956;19.816;2022-09-09T20:19:58;17.64;78.56
36244;DHT22;22284;49.956;19.816;2022-09-09T20:23:00;17.60;78.49